createdAt,value
2022-09-23T00:18:20.570Z,9.30
2022-09-23T00:20:47.820Z,11.60
2022-09-23T00:25:41.631Z,10.90
2022-09-23T01:31:16.891Z,10.10
2022-09-23T02:43:50.807Z,9.70
2022-09-23T02:48:51.711Z,9.70
2022-09-23T03:42:23.461Z,9.50
2022-09-23T03:44:54.449Z,9.50
2022-09-23T04:31:45.653Z,8.90
2022-09-23T04:46:28.971Z,10.30
2022-09-23T04:48:55.735Z,12.00
2022-09-23T06:18:15.847Z,11.50
2022-09-23T06:47:57.825Z,13.00
2022-09-23T07:05:17.275Z,13.40
2022-09-23T07:34:54.594Z,14.80
2022-09-23T07:57:03.842Z,16.80
2022-09-23T08:07:02.781Z,17.00
2022-09-23T08:09:31.990Z,17.00
2022-09-23T08:16:54.269Z,17.70
2022-09-23T08:24:18.424Z,17.30
2022-09-23T08:26:46.420Z,18.20
2022-09-23T08:29:18.246Z,17.40
2022-09-23T08:31:45.752Z,16.60
2022-09-23T08:36:40.011Z,17.70
2022-09-23T08:41:34.627Z,16.60
2022-09-23T08:44:16.404Z,17.90
2022-09-23T08:47:10.673Z,18.40
2022-09-23T08:49:45.537Z,19.10
2022-09-23T08:52:27.388Z,19.60
2022-09-23T08:57:31.678Z,18.90
2022-09-23T09:00:00.691Z,20.10
2022-09-23T09:02:29.172Z,18.90
2022-09-23T09:05:02.820Z,20.30
2022-09-23T09:07:37.387Z,19.50
2022-09-23T09:10:26.798Z,18.60
2022-09-23T09:13:23.014Z,19.40
2022-09-23T09:16:05.823Z,21.00
2022-09-23T09:18:36.009Z,19.80
2022-09-23T09:21:12.056Z,20.20
2022-09-23T09:24:21.358Z,18.80
2022-09-23T09:29:34.920Z,19.30
2022-09-23T09:32:18.874Z,20.90
2022-09-23T09:34:54.553Z,19.00
2022-09-23T09:37:39.374Z,20.60
2022-09-23T09:40:11.268Z,20.00
2022-09-23T09:42:45.069Z,21.10
2022-09-23T09:45:14.558Z,20.60
2022-09-23T09:48:17.593Z,18.00
2022-09-23T09:50:53.444Z,20.60
2022-09-23T09:56:05.616Z,19.70
2022-09-23T09:58:44.172Z,19.80
2022-09-23T10:01:26.521Z,18.70
2022-09-23T10:04:03.608Z,20.50
2022-09-23T10:06:35.821Z,19.40
2022-09-23T10:09:05.374Z,21.60
2022-09-23T10:11:33.101Z,19.60
2022-09-23T10:16:28.533Z,20.20
2022-09-23T10:21:33.310Z,22.80
2022-09-23T10:26:44.004Z,20.80
2022-09-23T10:29:24.308Z,21.80
2022-09-23T10:32:25.815Z,23.20
2022-09-23T10:34:58.864Z,22.70
2022-09-23T10:37:36.892Z,21.30
2022-09-23T10:40:49.760Z,20.20
2022-09-23T10:44:01.170Z,20.20
2022-09-23T10:46:38.869Z,21.20
2022-09-23T10:49:40.406Z,21.00
2022-09-23T10:52:22.481Z,21.20
2022-09-23T10:55:04.263Z,21.70
2022-09-23T10:57:45.766Z,19.90
2022-09-23T11:00:23.265Z,20.20
2022-09-23T11:03:20.371Z,19.70
2022-09-23T11:05:55.803Z,19.00
2022-09-23T11:08:40.303Z,20.50
2022-09-23T11:11:23.052Z,18.60
2022-09-23T11:14:06.089Z,19.90
2022-09-23T11:19:02.895Z,20.20
2022-09-23T11:22:10.459Z,20.50
2022-09-23T11:24:51.137Z,20.60
2022-09-23T11:29:47.748Z,20.50
2022-09-23T11:32:32.973Z,21.90
2022-09-23T11:35:16.552Z,19.10
2022-09-23T11:37:47.056Z,21.50
2022-09-23T11:40:32.966Z,19.50
2022-09-23T11:43:24.615Z,21.80
2022-09-23T11:46:02.038Z,19.60
2022-09-23T11:48:51.619Z,21.10
2022-09-23T11:51:53.646Z,21.30
2022-09-23T11:54:26.215Z,20.10
2022-09-23T11:57:02.715Z,21.70
2022-09-23T11:59:51.070Z,21.50
2022-09-23T12:02:29.649Z,21.50
2022-09-23T12:05:13.056Z,22.50
2022-09-23T12:08:01.305Z,22.60
2022-09-23T12:10:45.809Z,19.70
2022-09-23T12:13:39.068Z,20.50
2022-09-23T12:16:49.021Z,20.40
2022-09-23T12:19:54.765Z,20.70
2022-09-23T12:25:17.816Z,21.40
2022-09-23T12:27:49.853Z,20.50
2022-09-23T12:30:26.603Z,19.20
2022-09-23T12:33:07.141Z,19.20
2022-09-23T12:35:41.559Z,20.50
2022-09-23T12:38:43.264Z,20.10
2022-09-23T12:44:13.853Z,20.80
2022-09-23T12:46:46.711Z,20.40
2022-09-23T12:49:37.183Z,21.40
2022-09-23T12:52:16.001Z,22.00
2022-09-23T12:54:47.766Z,20.60
2022-09-23T12:57:34.582Z,21.90
2022-09-23T13:00:11.494Z,20.40
2022-09-23T13:02:43.126Z,20.40
2022-09-23T13:05:43.813Z,21.10
2022-09-23T13:08:18.135Z,19.80
2022-09-23T13:10:49.560Z,20.40
2022-09-23T13:13:24.957Z,22.30
2022-09-23T13:15:53.942Z,21.30
2022-09-23T13:20:49.433Z,20.40
2022-09-23T13:23:22.822Z,20.40
2022-09-23T13:25:52.600Z,20.70
2022-09-23T13:28:43.431Z,20.00
2022-09-23T13:31:16.103Z,19.60
2022-09-23T13:33:59.688Z,20.30
2022-09-23T13:36:30.611Z,18.80
2022-09-23T13:39:25.439Z,18.90
2022-09-23T13:42:03.051Z,20.10
2022-09-23T13:44:30.073Z,21.80
2022-09-23T13:46:59.696Z,19.30
2022-09-23T13:49:36.413Z,20.90
2022-09-23T13:54:32.088Z,19.50
2022-09-23T13:59:31.555Z,21.10
2022-09-23T14:02:16.621Z,21.00
2022-09-23T14:04:43.989Z,21.10
2022-09-23T14:07:13.945Z,20.00
2022-09-23T14:09:48.127Z,22.20
2022-09-23T14:12:15.507Z,21.30
2022-09-23T14:14:43.274Z,21.20
2022-09-23T14:17:16.704Z,21.20
2022-09-23T14:22:37.102Z,21.70
2022-09-23T14:25:04.221Z,20.20
2022-09-23T14:27:32.949Z,20.90
2022-09-23T14:30:02.678Z,21.10
2022-09-23T14:32:30.726Z,21.80
2022-09-23T14:35:00.391Z,21.00
2022-09-23T14:37:52.976Z,20.90
2022-09-23T14:40:22.932Z,21.00
2022-09-23T14:43:05.805Z,20.90
2022-09-23T14:45:38.601Z,20.50
2022-09-23T14:48:14.230Z,20.60
2022-09-23T14:50:48.350Z,20.40
2022-09-23T14:53:22.443Z,20.00
2022-09-23T14:55:52.965Z,20.40
2022-09-23T14:58:22.990Z,20.10
2022-09-23T15:01:01.352Z,19.20
2022-09-23T15:03:28.709Z,19.80
2022-09-23T15:06:08.617Z,19.70
2022-09-23T15:08:36.467Z,21.10
2022-09-23T15:11:07.897Z,20.20
2022-09-23T15:13:40.509Z,18.30
2022-09-23T15:16:08.051Z,19.50
2022-09-23T15:18:41.622Z,19.50
2022-09-23T15:21:14.776Z,19.40
2022-09-23T15:26:14.703Z,19.10
2022-09-23T15:28:42.736Z,18.60
2022-09-23T15:31:17.538Z,19.50
2022-09-23T15:33:45.576Z,20.30
2022-09-23T15:36:17.615Z,18.30
2022-09-23T15:41:13.630Z,18.80
2022-09-23T15:43:41.744Z,19.20
2022-09-23T15:46:21.039Z,20.30
2022-09-23T15:48:59.960Z,18.80
2022-09-23T15:51:29.650Z,18.30
2022-09-23T15:53:56.584Z,18.10
2022-09-23T15:56:24.688Z,18.50
2022-09-23T16:01:29.037Z,18.30
2022-09-23T16:08:52.342Z,19.50
2022-09-23T16:11:24.010Z,18.00
2022-09-23T16:13:51.210Z,18.00
2022-09-23T16:18:49.775Z,19.40
2022-09-23T16:21:19.728Z,17.90
2022-09-23T16:23:49.390Z,19.20
2022-09-23T16:26:21.591Z,17.20
2022-09-23T16:28:52.932Z,16.90
2022-09-23T16:31:20.773Z,17.50
2022-09-23T16:33:48.955Z,18.80
2022-09-23T16:36:22.183Z,17.40
2022-09-23T16:38:49.390Z,17.30
2022-09-23T16:46:15.345Z,17.30
2022-09-23T16:48:42.571Z,15.80
2022-09-23T16:51:18.552Z,16.40
2022-09-23T16:58:40.483Z,17.00
2022-09-23T17:01:28.371Z,17.00
2022-09-23T17:03:55.063Z,15.60
2022-09-23T17:11:17.839Z,18.30
2022-09-23T17:13:45.140Z,18.20
2022-09-23T17:31:07.494Z,16.50
2022-09-23T17:33:37.766Z,16.50
2022-09-23T17:38:36.379Z,16.20
2022-09-23T17:41:04.728Z,17.80
2022-09-23T17:43:31.713Z,17.10
2022-09-23T17:46:06.940Z,16.40
2022-09-23T17:51:13.983Z,16.40
2022-09-23T17:53:43.156Z,15.00
2022-09-23T17:56:23.194Z,16.30
2022-09-23T17:58:50.749Z,17.80
2022-09-23T18:01:20.754Z,16.30
2022-09-23T18:06:20.655Z,16.30
2022-09-23T18:08:51.223Z,17.50
2022-09-23T18:23:47.756Z,16.10
2022-09-23T18:36:06.203Z,16.10
2022-09-23T18:43:37.451Z,16.00
2022-09-23T18:46:10.731Z,16.10
2022-09-23T18:51:26.618Z,16.10
2022-09-23T18:56:29.649Z,16.10
2022-09-23T19:08:55.144Z,16.10
2022-09-23T19:13:55.312Z,16.10
2022-09-23T19:18:50.351Z,14.70
2022-09-23T19:21:20.257Z,15.90
2022-09-23T19:23:49.610Z,15.90
2022-09-23T19:26:19.587Z,15.90
2022-09-23T19:28:50.934Z,14.40
2022-09-23T19:31:23.985Z,14.40
2022-09-23T19:34:13.338Z,15.90
2022-09-23T19:36:42.486Z,15.80
2022-09-23T19:39:20.886Z,15.70
2022-09-23T19:41:48.454Z,15.70
2022-09-23T19:44:16.443Z,16.00
2022-09-23T19:46:45.562Z,16.40
2022-09-23T19:56:35.975Z,15.50
2022-09-23T20:04:01.855Z,16.90
2022-09-23T20:06:30.527Z,16.10
2022-09-23T20:08:59.505Z,15.70
2022-09-23T20:11:28.581Z,14.20
2022-09-23T20:14:02.072Z,16.40
2022-09-23T20:16:33.130Z,15.70
2022-09-23T20:19:01.084Z,16.40
2022-09-23T20:21:29.495Z,15.80
2022-09-23T20:23:57.280Z,15.70
2022-09-23T20:26:43.051Z,15.60
2022-09-23T20:39:08.080Z,14.20
2022-09-23T20:41:37.509Z,15.60
2022-09-23T20:44:07.424Z,15.50
2022-09-23T20:46:35.618Z,16.80
2022-09-23T20:49:03.586Z,15.00
2022-09-23T20:51:33.007Z,15.10
2022-09-23T20:56:29.802Z,15.90
2022-09-23T21:01:37.209Z,15.70
2022-09-23T21:04:05.925Z,15.50
2022-09-23T21:06:41.004Z,15.50
2022-09-23T21:11:37.326Z,15.60
2022-09-23T21:14:04.123Z,16.60
2022-09-23T21:18:59.230Z,16.10
2022-09-23T21:23:53.785Z,14.50
2022-09-23T21:26:23.060Z,15.50
2022-09-23T21:28:51.812Z,15.30
2022-09-23T21:31:26.020Z,16.00
2022-09-23T21:36:21.112Z,16.70
2022-09-23T21:38:47.882Z,15.60
2022-09-23T21:41:15.720Z,14.10
2022-09-23T21:46:13.032Z,16.20
2022-09-23T21:48:41.299Z,15.50
2022-09-23T21:53:42.643Z,15.40
2022-09-23T21:56:12.788Z,16.80
2022-09-23T21:58:42.389Z,15.20
2022-09-23T22:01:15.210Z,15.40
2022-09-23T22:03:45.150Z,14.60
2022-09-23T22:06:14.401Z,15.50
2022-09-23T22:08:43.337Z,15.50
2022-09-23T22:11:31.334Z,15.70
2022-09-23T22:13:59.766Z,15.50
2022-09-23T22:16:29.262Z,15.50
2022-09-23T22:18:58.445Z,16.70
2022-09-23T22:23:54.762Z,15.50
2022-09-23T22:34:47.849Z,14.60
2022-09-23T22:44:31.253Z,14.50
2022-09-23T22:46:58.968Z,16.80
2022-09-23T22:51:55.596Z,14.50
2022-09-23T23:09:15.060Z,14.10
2022-09-23T23:14:10.416Z,15.30
2022-09-23T23:16:38.136Z,14.80
2022-09-23T23:19:09.648Z,15.40
2022-09-23T23:21:37.245Z,15.30
2022-09-23T23:24:05.235Z,16.70
2022-09-23T23:26:33.796Z,15.30
2022-09-23T23:29:01.648Z,16.80
2022-09-23T23:31:29.359Z,15.20
2022-09-23T23:33:56.125Z,16.70
2022-09-23T23:36:23.458Z,15.30
2022-09-23T23:38:51.827Z,15.40
2022-09-23T23:41:22.412Z,14.20
2022-09-23T23:43:58.360Z,14.90
2022-09-23T23:46:27.617Z,15.40
2022-09-23T23:48:55.649Z,15.30
2022-09-23T23:51:24.350Z,13.90
2022-09-23T23:53:51.883Z,14.50
2022-09-23T23:56:20.702Z,14.10
